Time,TemperatureF,DewpointF,PressureIn,WindDirection,WindDirectionDegrees,WindSpeedMPH,WindSpeedGustMPH,Humidity,HourlyPrecipIn,Conditions,Clouds,dailyrainin,SoftwareType,DateUTC
2013-02-20 00:05:00,41.2,17.0,30.03,West,275,3.0,8.0,37,0.00,,,0.00,weatherlink.com 1.10,2013-02-20 05:05:00,
2013-02-20 00:20:00,41.4,16.0,30.04,WNW,283,6.0,13.0,36,0.00,,,0.00,weatherlink.com 1.10,2013-02-20 05:20:00,
2013-02-20 00:35:00,41.0,16.0,30.05,WNW,292,3.0,9.0,37,0.00,,,0.00,weatherlink.com 1.10,2013-02-20 05:35:00,
2013-02-20 00:50:00,40.6,16.0,30.06,WNW,284,4.0,9.0,37,0.00,,,0.00,weatherlink.com 1.10,2013-02-20 05:50:00,
2013-02-20 01:05:00,40.3,16.0,30.06,West,269,3.0,8.0,37,0.00,,,0.00,weatherlink.com 1.10,2013-02-20 06:05:00,
2013-02-20 01:20:00,39.8,16.0,30.07,WNW,295,3.0,7.0,38,0.00,,,0.00,weatherlink.com 1.10,2013-02-20 06:20:00,
2013-02-20 01:35:00,39.2,15.0,30.07,West,279,3.0,6.0,38,0.00,,,0.00,weatherlink.com 1.10,2013-02-20 06:35:00,
2013-02-20 01:50:00,38.7,16.0,30.06,WNW,294,3.0,6.0,39,0.00,,,0.00,weatherlink.com 1.10,2013-02-20 06:50:00,
2013-02-20 02:05:00,38.8,16.0,30.05,NW,315,3.0,9.0,39,0.00,,,0.00,weatherlink.com 1.10,2013-02-20 07:05:00,
2013-02-20 02:20:00,38.5,16.0,30.05,NNW,327,2.0,8.0,40,0.00,,,0.00,weatherlink.com 1.10,2013-02-20 07:20:00,
2013-02-20 02:35:00,38.0,16.0,30.05,WNW,297,2.0,7.0,40,0.00,,,0.00,weatherlink.com 1.10,2013-02-20 07:35:00,
2013-02-20 02:50:00,37.4,16.0,30.05,WNW,294,0.0,5.0,41,0.00,,,0.00,weatherlink.com 1.10,2013-02-20 07:50:00,
2013-02-20 03:05:00,37.2,16.0,30.05,NW,318,0.0,5.0,42,0.00,,,0.00,weatherlink.com 1.10,2013-02-20 08:05:00,
2013-02-20 03:21:00,36.9,16.0,30.06,West,273,3.0,5.0,43,0.00,,,0.00,weatherlink.com 1.10,2013-02-20 08:21:00,
2013-02-20 03:36:00,36.3,16.0,30.05,West,267,1.0,5.0,44,0.00,,,0.00,weatherlink.com 1.10,2013-02-20 08:36:00,
2013-02-20 03:50:00,35.7,15.0,30.05,West,259,1.0,3.0,43,0.00,,,0.00,weatherlink.com 1.10,2013-02-20 08:50:00,
2013-02-20 04:05:00,35.2,17.0,30.05,WSW,256,1.0,2.0,47,0.00,,,0.00,weatherlink.com 1.10,2013-02-20 09:05:00,
2013-02-20 04:21:00,33.9,16.0,30.05,WSW,249,1.0,2.0,49,0.00,,,0.00,weatherlink.com 1.10,2013-02-20 09:21:00,
2013-02-20 04:36:00,32.6,18.0,30.05,WSW,249,0.0,1.0,56,0.00,,,0.00,weatherlink.com 1.10,2013-02-20 09:36:00,
2013-02-20 04:51:00,31.8,17.0,30.06,WSW,249,1.0,2.0,54,0.00,,,0.00,weatherlink.com 1.10,2013-02-20 09:51:00,
2013-02-20 05:06:00,31.6,17.0,30.06,WSW,249,0.0,1.0,56,0.00,,,0.00,weatherlink.com 1.10,2013-02-20 10:06:00,
2013-02-20 05:21:00,30.8,17.0,30.06,WSW,249,0.0,1.0,57,0.00,,,0.00,weatherlink.com 1.10,2013-02-20 10:21:00,
2013-02-20 05:36:00,29.8,18.0,30.05,WSW,249,0.0,1.0,63,0.00,,,0.00,weatherlink.com 1.10,2013-02-20 10:36:00,
2013-02-20 05:51:00,29.0,19.0,30.07,WSW,249,1.0,1.0,65,0.00,,,0.00,weatherlink.com 1.10,2013-02-20 10:51:00,
2013-02-20 06:06:00,28.7,19.0,30.07,WSW,249,0.0,1.0,67,0.00,,,0.00,weatherlink.com 1.10,2013-02-20 11:06:00,
2013-02-20 06:21:00,28.0,19.0,30.07,WSW,249,0.0,2.0,68,0.00,,,0.00,weatherlink.com 1.10,2013-02-20 11:21:00,
2013-02-20 06:36:00,27.6,19.0,30.07,WSW,249,1.0,1.0,70,0.00,,,0.00,weatherlink.com 1.10,2013-02-20 11:36:00,
2013-02-20 06:51:00,27.8,19.0,30.08,WSW,249,1.0,1.0,69,0.00,,,0.00,weatherlink.com 1.10,2013-02-20 11:51:00,
2013-02-20 07:06:00,27.8,18.0,30.08,WSW,249,0.0,1.0,67,0.00,,,0.00,weatherlink.com 1.10,2013-02-20 12:06:00,
2013-02-20 07:22:00,28.1,17.0,30.09,WSW,249,1.0,2.0,63,0.00,,,0.00,weatherlink.com 1.10,2013-02-20 12:22:00,
2013-02-20 07:36:00,28.3,18.0,30.09,WSW,249,0.0,1.0,66,0.00,,,0.00,weatherlink.com 1.10,2013-02-20 12:36:00,
2013-02-20 07:51:00,28.7,17.0,30.09,WSW,249,0.0,1.0,61,0.00,,,0.00,weatherlink.com 1.10,2013-02-20 12:51:00,
2013-02-20 08:07:00,29.7,18.0,30.10,WSW,249,0.0,1.0,63,0.00,,,0.00,weatherlink.com 1.10,2013-02-20 13:07:00,
2013-02-20 08:21:00,30.5,20.0,30.10,WSW,249,0.0,1.0,64,0.00,,,0.00,weatherlink.com 1.10,2013-02-20 13:21:00,
2013-02-20 08:36:00,31.4,20.0,30.10,WSW,249,0.0,1.0,63,0.00,,,0.00,weatherlink.com 1.10,2013-02-20 13:36:00,
2013-02-20 08:51:00,32.6,20.0,30.11,WSW,249,1.0,1.0,59,0.00,,,0.00,weatherlink.com 1.10,2013-02-20 13:51:00,
2013-02-20 09:06:00,34.8,17.0,30.11,WSW,244,0.0,3.0,49,0.00,,,0.00,weatherlink.com 1.10,2013-02-20 14:06:00,
2013-02-20 09:21:00,36.2,18.0,30.11,SW,235,1.0,4.0,48,0.00,,,0.00,weatherlink.com 1.10,2013-02-20 14:21:00,
2013-02-20 09:37:00,37.7,18.0,30.11,WSW,238,5.0,6.0,46,0.00,,,0.00,weatherlink.com 1.10,2013-02-20 14:37:00,
2013-02-20 09:52:00,39.6,20.0,30.11,West,261,4.0,6.0,46,0.00,,,0.00,weatherlink.com 1.10,2013-02-20 14:52:00,
2013-02-20 10:06:00,41.4,17.0,30.11,SW,234,2.0,8.0,37,0.00,,,0.00,weatherlink.com 1.10,2013-02-20 15:06:00,
2013-02-20 10:22:00,43.0,15.0,30.12,NNW,333,6.0,12.0,32,0.00,,,0.00,weatherlink.com 1.10,2013-02-20 15:22:00,
2013-02-20 10:37:00,44.5,15.0,30.12,West,271,2.0,10.0,31,0.00,,,0.00,weatherlink.com 1.10,2013-02-20 15:37:00,
2013-02-20 10:52:00,45.5,14.0,30.11,NNE,24,3.0,6.0,28,0.00,,,0.00,weatherlink.com 1.10,2013-02-20 15:52:00,
2013-02-20 11:07:00,46.8,15.0,30.11,NW,322,3.0,8.0,28,0.00,,,0.00,weatherlink.com 1.10,2013-02-20 16:07:00,
2013-02-20 11:22:00,47.3,15.0,30.11,NNW,346,2.0,5.0,27,0.00,,,0.00,weatherlink.com 1.10,2013-02-20 16:22:00,
2013-02-20 11:37:00,47.9,13.0,30.11,NNW,340,6.0,11.0,25,0.00,,,0.00,weatherlink.com 1.10,2013-02-20 16:37:00,
2013-02-20 11:52:00,48.8,11.0,30.09,WNW,303,4.0,7.0,22,0.00,,,0.00,weatherlink.com 1.10,2013-02-20 16:52:00,
2013-02-20 12:07:00,49.7,12.0,30.09,NNW,346,1.0,9.0,22,0.00,,,0.00,weatherlink.com 1.10,2013-02-20 17:07:00,
2013-02-20 12:22:00,51.1,12.0,30.08,West,274,3.0,6.0,21,0.00,,,0.00,weatherlink.com 1.10,2013-02-20 17:22:00,
2013-02-20 12:37:00,51.4,11.0,30.07,NW,316,3.0,10.0,20,0.00,,,0.00,weatherlink.com 1.10,2013-02-20 17:37:00,
2013-02-20 12:52:00,51.7,10.0,30.07,West,259,6.0,-999.0,19,-99.99,,,0.00,weatherlink.com 1.10,2013-02-20 17:52:00,
2013-02-20 13:07:00,52.9,11.0,30.06,NNE,16,3.0,10.0,19,0.00,,,0.00,weatherlink.com 1.10,2013-02-20 18:07:00,
2013-02-20 13:22:00,52.7,9.0,30.06,NW,311,2.0,7.0,17,0.00,,,0.00,weatherlink.com 1.10,2013-02-20 18:22:00,
2013-02-20 13:37:00,52.5,10.0,30.05,ENE,57,0.0,8.0,18,0.00,,,0.00,weatherlink.com 1.10,2013-02-20 18:37:00,
2013-02-20 13:52:00,53.5,13.0,30.04,NNW,348,0.0,7.0,20,0.00,,,0.00,weatherlink.com 1.10,2013-02-20 18:52:00,
2013-02-20 14:07:00,53.9,11.0,30.04,NNW,331,3.0,5.0,18,0.00,,,0.00,weatherlink.com 1.10,2013-02-20 19:07:00,
2013-02-20 14:22:00,54.4,9.0,30.04,NW,321,7.0,8.0,16,0.00,,,0.00,weatherlink.com 1.10,2013-02-20 19:22:00,
2013-02-20 14:37:00,54.4,11.0,30.03,NNW,344,4.0,7.0,18,0.00,,,0.00,weatherlink.com 1.10,2013-02-20 19:37:00,
2013-02-20 14:52:00,55.0,11.0,30.03,NW,326,3.0,6.0,17,0.00,,,0.00,weatherlink.com 1.10,2013-02-20 19:52:00,
2013-02-20 15:07:00,55.1,8.0,30.03,NNW,341,0.0,4.0,15,0.00,,,0.00,weatherlink.com 1.10,2013-02-20 20:07:00,
2013-02-20 15:22:00,55.5,8.0,30.02,NNW,335,0.0,6.0,15,0.00,,,0.00,weatherlink.com 1.10,2013-02-20 20:22:00,
2013-02-20 15:37:00,55.5,3.0,30.03,WNW,287,6.0,10.0,12,0.00,,,0.00,weatherlink.com 1.10,2013-02-20 20:37:00,
2013-02-20 15:52:00,55.9,5.0,30.03,West,263,2.0,7.0,13,0.00,,,0.00,weatherlink.com 1.10,2013-02-20 20:52:00,
2013-02-20 16:07:00,56.3,12.0,30.03,SW,231,2.0,7.0,17,0.00,,,0.00,weatherlink.com 1.10,2013-02-20 21:07:00,
2013-02-20 16:22:00,55.7,8.0,30.04,WSW,248,2.0,7.0,15,0.00,,,0.00,weatherlink.com 1.10,2013-02-20 21:22:00,
2013-02-20 16:37:00,54.4,14.0,30.05,SSW,209,4.0,8.0,20,0.00,,,0.00,weatherlink.com 1.10,2013-02-20 21:37:00,
2013-02-20 16:52:00,52.9,18.0,30.05,SW,234,4.0,5.0,25,0.00,,,0.00,weatherlink.com 1.10,2013-02-20 21:52:00,
2013-02-20 17:07:00,51.9,18.0,30.05,WSW,243,1.0,7.0,26,0.00,,,0.00,weatherlink.com 1.10,2013-02-20 22:07:00,
2013-02-20 17:23:00,51.3,18.0,30.06,SSW,205,2.0,6.0,27,0.00,,,0.00,weatherlink.com 1.10,2013-02-20 22:23:00,
2013-02-20 17:38:00,50.6,17.0,30.07,SSW,209,3.0,7.0,26,0.00,,,0.00,weatherlink.com 1.10,2013-02-20 22:38:00,
2013-02-20 17:54:00,50.1,17.0,30.08,SW,233,2.0,7.0,27,0.00,,,0.00,weatherlink.com 1.10,2013-02-20 22:54:00,
2013-02-20 18:08:00,49.7,18.0,30.08,SW,227,3.0,6.0,28,0.00,,,0.00,weatherlink.com 1.10,2013-02-20 23:08:00,
2013-02-20 18:23:00,49.2,18.0,30.09,WSW,246,0.0,4.0,29,0.00,,,0.00,weatherlink.com 1.10,2013-02-20 23:23:00,
2013-02-20 18:38:00,48.9,19.0,30.09,SW,224,1.0,6.0,30,0.00,,,0.00,weatherlink.com 1.10,2013-02-20 23:38:00,
2013-02-20 18:53:00,48.5,18.0,30.08,West,263,1.0,3.0,30,0.00,,,0.00,weatherlink.com 1.10,2013-02-20 23:53:00,
2013-02-20 19:08:00,47.1,20.0,30.08,SSW,199,0.0,2.0,34,0.00,,,0.00,weatherlink.com 1.10,2013-02-21 00:08:00,
2013-02-20 19:23:00,45.8,20.0,30.08,SSW,199,0.0,2.0,36,0.00,,,0.00,weatherlink.com 1.10,2013-02-21 00:23:00,
2013-02-20 19:38:00,44.7,19.0,30.07,SSW,199,0.0,1.0,36,0.00,,,0.00,weatherlink.com 1.10,2013-02-21 00:38:00,
2013-02-20 19:53:00,43.6,17.0,30.08,SW,217,0.0,2.0,35,0.00,,,0.00,weatherlink.com 1.10,2013-02-21 00:53:00,
2013-02-20 20:08:00,43.0,19.0,30.09,SW,216,0.0,1.0,38,0.00,,,0.00,weatherlink.com 1.10,2013-02-21 01:08:00,
2013-02-20 20:23:00,43.2,20.0,30.09,SW,216,1.0,2.0,40,0.00,,,0.00,weatherlink.com 1.10,2013-02-21 01:23:00,
2013-02-20 20:38:00,41.7,21.0,30.09,SW,216,0.0,2.0,43,0.00,,,0.00,weatherlink.com 1.10,2013-02-21 01:38:00,
2013-02-20 20:53:00,39.7,22.0,30.09,ESE,119,1.0,3.0,49,0.00,,,0.00,weatherlink.com 1.10,2013-02-21 01:53:00,
2013-02-20 21:08:00,39.0,20.0,30.10,NE,36,1.0,3.0,47,0.00,,,0.00,weatherlink.com 1.10,2013-02-21 02:08:00,
2013-02-20 21:23:00,38.4,20.0,30.09,NNE,26,0.0,3.0,48,0.00,,,0.00,weatherlink.com 1.10,2013-02-21 02:23:00,
2013-02-20 21:38:00,38.9,13.0,30.10,NE,44,0.0,3.0,34,0.00,,,0.00,weatherlink.com 1.10,2013-02-21 02:38:00,
2013-02-20 21:53:00,38.9,13.0,30.11,NNE,32,2.0,4.0,35,0.00,,,0.00,weatherlink.com 1.10,2013-02-21 02:53:00,
2013-02-20 22:08:00,38.3,13.0,30.11,ESE,117,0.0,5.0,36,0.00,,,0.00,weatherlink.com 1.10,2013-02-21 03:08:00,
2013-02-20 22:22:00,38.2,11.0,30.11,NE,42,1.0,6.0,33,0.00,,,0.00,weatherlink.com 1.10,2013-02-21 03:22:00,
2013-02-20 22:27:00,38.5,11.8,30.12,NE,47,1.0,4.0,33,0.00,,,0.00,Cumulus v1.9.2,2013-02-21 03:27:00,
2013-02-20 22:32:00,38.5,11.8,30.12,NE,47,1.0,4.0,33,0.00,,,0.00,Cumulus v1.9.2,2013-02-21 03:32:00,
2013-02-20 22:33:00,38.5,11.8,30.11,NE,51,2.0,2.0,33,0.00,,,0.00,Wunderground v.1.15,2013-02-21 03:33:00,
2013-02-20 22:34:00,38.4,11.1,30.11,ENE,57,2.0,4.0,32,0.00,,,0.00,Cumulus v1.9.2,2013-02-21 03:34:00,
2013-02-20 22:35:00,38.4,10.3,30.11,ENE,60,1.0,4.0,31,0.00,,,0.00,Cumulus v1.9.2,2013-02-21 03:35:00,
2013-02-20 22:36:00,38.4,11.8,30.11,ENE,77,2.0,3.0,33,0.00,,,0.00,Cumulus v1.9.2,2013-02-21 03:36:00,
2013-02-20 22:37:00,38.3,13.0,30.11,East,82,1.0,3.0,35,0.00,,,0.00,Cumulus v1.9.2,2013-02-21 03:37:00,
2013-02-20 22:38:00,38.3,11.7,30.11,East,79,2.0,3.0,33,0.00,,,0.00,Cumulus v1.9.2,2013-02-21 03:38:00,
2013-02-20 22:39:00,38.2,11.0,30.11,ENE,71,1.0,4.0,33,0.00,,,0.00,weatherlink.com 1.10,2013-02-21 03:39:00,
2013-02-20 22:40:00,38.1,12.2,30.11,ENE,76,1.0,3.0,34,0.00,,,0.00,Cumulus v1.9.2,2013-02-21 03:40:00,
2013-02-20 22:41:00,38.1,12.2,30.11,ENE,75,1.0,3.0,34,0.00,,,0.00,Cumulus v1.9.2,2013-02-21 03:41:00,
2013-02-20 22:42:00,38.0,11.4,30.11,ENE,76,1.0,3.0,33,0.00,,,0.00,Cumulus v1.9.2,2013-02-21 03:42:00,
2013-02-20 22:43:00,37.9,10.6,30.11,ENE,75,1.0,3.0,32,0.00,,,0.00,Cumulus v1.9.2,2013-02-21 03:43:00,
2013-02-20 22:44:00,37.9,10.6,30.11,ENE,74,1.0,3.0,32,0.00,,,0.00,Cumulus v1.9.2,2013-02-21 03:44:00,
2013-02-20 22:45:00,37.9,9.2,30.11,ENE,69,2.0,4.0,30,0.00,,,0.00,Cumulus v1.9.2,2013-02-21 03:45:00,
2013-02-20 22:46:00,37.8,9.8,30.11,ENE,63,1.0,4.0,31,0.00,,,0.00,Cumulus v1.9.2,2013-02-21 03:46:00,
2013-02-20 22:47:00,37.8,11.2,30.11,ENE,63,1.0,4.0,33,0.00,,,0.00,Cumulus v1.9.2,2013-02-21 03:47:00,
2013-02-20 22:48:00,37.8,11.9,30.11,ENE,64,1.0,4.0,34,0.00,,,0.00,Cumulus v1.9.2,2013-02-21 03:48:00,
2013-02-20 22:49:00,37.8,11.9,30.11,ENE,65,1.0,4.0,34,0.00,,,0.00,Cumulus v1.9.2,2013-02-21 03:49:00,
2013-02-20 22:50:00,37.7,11.8,30.11,ENE,65,1.0,4.0,34,0.00,,,0.00,Cumulus v1.9.2,2013-02-21 03:50:00,
2013-02-20 22:51:00,37.7,10.4,30.11,ENE,65,2.0,4.0,32,0.00,,,0.00,Cumulus v1.9.2,2013-02-21 03:51:00,
2013-02-20 22:52:00,37.7,9.0,30.11,ENE,65,1.0,4.0,30,0.00,,,0.00,Cumulus v1.9.2,2013-02-21 03:52:00,
2013-02-20 22:53:00,37.7,9.7,30.11,ENE,65,2.0,4.0,31,0.00,,,0.00,Cumulus v1.9.2,2013-02-21 03:53:00,
2013-02-20 22:54:00,37.7,9.0,30.11,East,92,3.0,4.0,30,0.00,,,0.00,weatherlink.com 1.10,2013-02-21 03:54:00,
2013-02-20 22:55:00,37.7,8.2,30.11,ENE,67,1.0,5.0,29,0.00,,,0.00,Cumulus v1.9.2,2013-02-21 03:55:00,
2013-02-20 22:56:00,37.8,9.1,30.11,ENE,66,2.0,5.0,30,0.00,,,0.00,Cumulus v1.9.2,2013-02-21 03:56:00,
2013-02-20 22:57:00,37.8,9.1,30.12,ENE,66,2.0,6.0,30,0.00,,,0.00,Cumulus v1.9.2,2013-02-21 03:57:00,
2013-02-20 22:58:00,37.8,10.5,30.11,ENE,66,2.0,6.0,32,0.00,,,0.00,Cumulus v1.9.2,2013-02-21 03:58:00,
2013-02-20 22:59:00,37.8,9.8,30.11,ENE,65,1.0,6.0,31,0.00,,,0.00,Cumulus v1.9.2,2013-02-21 03:59:00,
2013-02-20 23:00:00,37.8,9.1,30.11,ENE,65,1.0,6.0,30,0.00,,,0.00,Cumulus v1.9.2,2013-02-21 04:00:00,
2013-02-20 23:01:00,37.8,11.2,30.11,ENE,65,1.0,6.0,33,0.00,,,0.00,Cumulus v1.9.2,2013-02-21 04:01:00,
2013-02-20 23:02:00,37.8,10.5,30.11,ENE,62,1.0,6.0,32,0.00,,,0.00,Cumulus v1.9.2,2013-02-21 04:02:00,
2013-02-20 23:03:00,37.8,9.8,30.11,ENE,60,1.0,6.0,31,0.00,,,0.00,Cumulus v1.9.2,2013-02-21 04:03:00,
2013-02-20 23:04:00,37.7,11.1,30.11,ENE,61,2.0,6.0,33,0.00,,,0.00,Cumulus v1.9.2,2013-02-21 04:04:00,
2013-02-20 23:05:00,37.7,11.1,30.11,ENE,57,2.0,6.0,33,0.00,,,0.00,Cumulus v1.9.2,2013-02-21 04:05:00,
2013-02-20 23:06:00,37.7,10.4,30.11,ENE,59,1.0,6.0,32,0.00,,,0.00,Cumulus v1.9.2,2013-02-21 04:06:00,
2013-02-20 23:07:00,37.7,8.2,30.11,ENE,60,2.0,6.0,29,0.00,,,0.00,Cumulus v1.9.2,2013-02-21 04:07:00,
2013-02-20 23:08:00,37.7,9.0,30.11,ENE,59,3.0,4.0,30,0.00,,,0.00,Cumulus v1.9.2,2013-02-21 04:08:00,
2013-02-20 23:09:00,37.7,9.0,30.11,NE,46,1.0,4.0,30,0.00,,,0.00,weatherlink.com 1.10,2013-02-21 04:09:00,
2013-02-20 23:10:00,37.8,9.1,30.11,NE,56,0.0,4.0,30,0.00,,,0.00,Cumulus v1.9.2,2013-02-21 04:10:00,
2013-02-20 23:11:00,37.8,9.8,30.11,NE,54,1.0,4.0,31,0.00,,,0.00,Cumulus v1.9.2,2013-02-21 04:11:00,
2013-02-20 23:12:00,37.7,10.4,30.11,NE,55,2.0,5.0,32,0.00,,,0.00,Cumulus v1.9.2,2013-02-21 04:12:00,
2013-02-20 23:13:00,37.8,9.1,30.11,NE,54,3.0,5.0,30,0.00,,,0.00,Cumulus v1.9.2,2013-02-21 04:13:00,
2013-02-20 23:14:00,37.8,10.5,30.11,NE,54,2.0,5.0,32,0.00,,,0.00,Cumulus v1.9.2,2013-02-21 04:14:00,
2013-02-20 23:15:00,37.7,11.1,30.11,NE,56,1.0,5.0,33,0.00,,,0.00,Cumulus v1.9.2,2013-02-21 04:15:00,
2013-02-20 23:16:00,37.7,10.4,30.11,ENE,57,1.0,5.0,32,0.00,,,0.00,Cumulus v1.9.2,2013-02-21 04:16:00,
2013-02-20 23:17:00,37.7,10.4,30.11,NE,56,1.0,5.0,32,0.00,,,0.00,Cumulus v1.9.2,2013-02-21 04:17:00,
2013-02-20 23:18:00,37.7,11.1,30.11,NE,55,1.0,5.0,33,0.00,,,0.00,Cumulus v1.9.2,2013-02-21 04:18:00,
2013-02-20 23:19:00,37.6,11.7,30.11,ENE,57,1.0,5.0,34,0.00,,,0.00,Cumulus v1.9.2,2013-02-21 04:19:00,
2013-02-20 23:20:00,37.6,11.7,30.11,ENE,58,1.0,5.0,34,0.00,,,0.00,Cumulus v1.9.2,2013-02-21 04:20:00,
2013-02-20 23:21:00,37.5,11.6,30.11,ENE,62,2.0,5.0,34,0.00,,,0.00,Cumulus v1.9.2,2013-02-21 04:21:00,
2013-02-20 23:22:00,37.4,10.9,30.11,ENE,68,1.0,5.0,33,0.00,,,0.00,Cumulus v1.9.2,2013-02-21 04:22:00,
2013-02-20 23:23:00,37.4,11.5,30.11,ENE,74,1.0,4.0,34,0.00,,,0.00,Cumulus v1.9.2,2013-02-21 04:23:00,
2013-02-20 23:24:00,37.4,11.0,30.11,East,92,3.0,3.0,33,0.00,,,0.00,weatherlink.com 1.10,2013-02-21 04:24:00,
2013-02-20 23:25:00,37.3,10.1,30.11,ENE,78,2.0,4.0,32,0.00,,,0.00,Cumulus v1.9.2,2013-02-21 04:25:00,
2013-02-20 23:26:00,37.2,11.4,30.11,ENE,77,1.0,4.0,34,0.00,,,0.00,Cumulus v1.9.2,2013-02-21 04:26:00,
2013-02-20 23:27:00,37.2,10.7,30.11,ENE,75,4.0,9.0,33,0.00,,,0.00,Cumulus v1.9.2,2013-02-21 04:27:00,
2013-02-20 23:28:00,37.2,10.0,30.11,ENE,75,2.0,9.0,32,0.00,,,0.00,Cumulus v1.9.2,2013-02-21 04:28:00,
2013-02-20 23:29:00,37.1,11.3,30.11,ENE,75,2.0,9.0,34,0.00,,,0.00,Cumulus v1.9.2,2013-02-21 04:29:00,
2013-02-20 23:30:00,37.1,11.9,30.11,ENE,74,2.0,9.0,35,0.00,,,0.00,Cumulus v1.9.2,2013-02-21 04:30:00,
2013-02-20 23:31:00,37.1,9.9,30.11,ENE,69,3.0,9.0,32,0.00,,,0.00,Cumulus v1.9.2,2013-02-21 04:31:00,
2013-02-20 23:32:00,37.1,10.6,30.11,ENE,67,1.0,9.0,33,0.00,,,0.00,Cumulus v1.9.2,2013-02-21 04:32:00,
2013-02-20 23:33:00,37.1,11.3,30.11,ENE,66,1.0,9.0,34,0.00,,,0.00,Cumulus v1.9.2,2013-02-21 04:33:00,
2013-02-20 23:34:00,37.1,11.3,30.11,ENE,61,2.0,9.0,34,0.00,,,0.00,Cumulus v1.9.2,2013-02-21 04:34:00,
2013-02-20 23:35:00,37.1,11.3,30.11,ENE,57,3.0,9.0,34,0.00,,,0.00,Cumulus v1.9.2,2013-02-21 04:35:00,
2013-02-20 23:36:00,37.1,11.9,30.11,ENE,58,2.0,9.0,35,0.00,,,0.00,Cumulus v1.9.2,2013-02-21 04:36:00,
2013-02-20 23:37:00,37.0,11.8,30.11,NE,55,2.0,8.0,35,0.00,,,0.00,Cumulus v1.9.2,2013-02-21 04:37:00,
2013-02-20 23:38:00,37.0,10.5,30.11,ENE,59,2.0,8.0,33,0.00,,,0.00,Cumulus v1.9.2,2013-02-21 04:38:00,
2013-02-20 23:39:00,37.1,11.0,30.11,ESE,107,1.0,8.0,34,0.00,,,0.00,weatherlink.com 1.10,2013-02-21 04:39:00,
2013-02-20 23:40:00,37.0,11.2,30.11,ENE,63,1.0,8.0,34,0.00,,,0.00,Cumulus v1.9.2,2013-02-21 04:40:00,
2013-02-20 23:41:00,37.0,11.2,30.11,ENE,66,2.0,8.0,34,0.00,,,0.00,Cumulus v1.9.2,2013-02-21 04:41:00,
2013-02-20 23:42:00,37.0,10.5,30.11,ENE,62,2.0,8.0,33,0.00,,,0.00,Cumulus v1.9.2,2013-02-21 04:42:00,
2013-02-20 23:43:00,37.0,10.5,30.11,ENE,64,1.0,8.0,33,0.00,,,0.00,Cumulus v1.9.2,2013-02-21 04:43:00,
2013-02-20 23:44:00,37.0,9.8,30.11,ENE,67,3.0,8.0,32,0.00,,,0.00,Cumulus v1.9.2,2013-02-21 04:44:00,
2013-02-20 23:45:00,37.0,10.5,30.12,ENE,73,2.0,5.0,33,0.00,,,0.00,Cumulus v1.9.2,2013-02-21 04:45:00,
2013-02-20 23:46:00,37.0,11.2,30.12,ENE,73,1.0,5.0,34,0.00,,,0.00,Cumulus v1.9.2,2013-02-21 04:46:00,
2013-02-20 23:47:00,37.0,9.8,30.12,ENE,76,1.0,5.0,32,0.00,,,0.00,Cumulus v1.9.2,2013-02-21 04:47:00,
2013-02-20 23:48:00,37.0,11.8,30.12,ENE,68,1.0,5.0,35,0.00,,,0.00,Cumulus v1.9.2,2013-02-21 04:48:00,
2013-02-20 23:49:00,37.0,10.5,30.12,ENE,66,1.0,5.0,33,0.00,,,0.00,Cumulus v1.9.2,2013-02-21 04:49:00,
2013-02-20 23:50:00,36.9,11.1,30.12,ENE,57,1.0,5.0,34,0.00,,,0.00,Cumulus v1.9.2,2013-02-21 04:50:00,
2013-02-20 23:51:00,36.9,11.1,30.12,NE,53,2.0,5.0,34,0.00,,,0.00,Cumulus v1.9.2,2013-02-21 04:51:00,
2013-02-20 23:52:00,36.9,10.4,30.12,NE,52,2.0,5.0,33,0.00,,,0.00,Cumulus v1.9.2,2013-02-21 04:52:00,
2013-02-20 23:53:00,36.9,10.4,30.12,NE,56,1.0,5.0,33,0.00,,,0.00,Cumulus v1.9.2,2013-02-21 04:53:00,
2013-02-20 23:54:00,36.9,10.0,30.12,NE,53,1.0,5.0,33,0.00,,,0.00,weatherlink.com 1.10,2013-02-21 04:54:00,
2013-02-20 23:55:00,36.8,11.0,30.12,NE,50,1.0,5.0,34,0.00,,,0.00,Cumulus v1.9.2,2013-02-21 04:55:00,
2013-02-20 23:56:00,36.8,12.3,30.12,NE,45,2.0,5.0,36,0.00,,,0.00,Cumulus v1.9.2,2013-02-21 04:56:00,
2013-02-20 23:57:00,36.8,10.3,30.12,NE,43,1.0,5.0,33,0.00,,,0.00,Cumulus v1.9.2,2013-02-21 04:57:00,
2013-02-20 23:58:00,36.8,11.7,30.12,NE,45,1.0,5.0,35,0.00,,,0.00,Cumulus v1.9.2,2013-02-21 04:58:00,
2013-02-20 23:59:00,36.7,10.9,30.12,NE,46,0.0,5.0,34,0.00,,,0.00,Cumulus v1.9.2,2013-02-21 04:59:00,